Time;durP1;ratioP1;P1;durP2;ratioP2;P2;SDS_P1;SDS_P2;PMS_P1;PMS_P2;Temp;Humidity;BMP_temperature;BMP_pressure;BME280_temperature;BME280_humidity;BME280_pressure;Samples;Min_cycle;Max_cycle;Signal;HPM_P1;HPM_P2
2022/03/15 00:00:34;;;;;;;11.05;5.30;;;;;;;;;;4967196;28;20059;-86
2022/03/15 00:03:00;;;;;;;10.93;5.63;;;;;;;;;;4953375;28;20019;-85
2022/03/15 00:05:26;;;;;;;10.07;5.15;;;;;;;;;;4953264;28;20034;-85
2022/03/15 00:07:51;;;;;;;7.88;4.57;;;;;;;;;;4963967;28;20396;-85
2022/03/15 00:10:18;;;;;;;9.18;4.93;;;;;;;;;;4961311;28;20163;-84
2022/03/15 00:12:44;;;;;;;7.32;4.13;;;;;;;;;;4966364;28;20055;-85
2022/03/15 00:15:10;;;;;;;10.20;3.95;;;;;;;;;;4945205;28;20584;-85
2022/03/15 00:17:37;;;;;;;7.72;4.22;;;;;;;;;;4949453;28;20026;-86
2022/03/15 00:20:05;;;;;;;9.48;5.07;;;;;;;;;;4948595;28;20027;-86
2022/03/15 00:22:36;;;;;;;9.80;3.72;;;;;;;;;;4963327;28;20027;-85
2022/03/15 00:25:06;;;;;;;9.73;3.73;;;;;;;;;;4970668;28;20026;-87
2022/03/15 00:27:32;;;;;;;12.10;3.83;;;;;;;;;;4963948;28;20774;-87
2022/03/15 00:29:58;;;;;;;9.48;4.28;;;;;;;;;;4950218;28;20592;-87
2022/03/15 00:32:25;;;;;;;9.02;4.00;;;;;;;;;;4950448;28;20022;-87
2022/03/15 00:34:51;;;;;;;11.20;4.28;;;;;;;;;;4965141;28;20034;-87
2022/03/15 00:37:16;;;;;;;9.98;4.57;;;;;;;;;;4952131;28;20075;-86
2022/03/15 00:39:42;;;;;;;8.40;3.90;;;;;;;;;;4944631;28;20033;-86
2022/03/15 00:42:08;;;;;;;9.05;4.22;;;;;;;;;;4943002;28;20051;-88
2022/03/15 00:44:34;;;;;;;9.93;4.38;;;;;;;;;;4944875;28;20457;-87
2022/03/15 00:46:59;;;;;;;10.57;4.10;;;;;;;;;;4952025;28;20031;-87
2022/03/15 00:49:25;;;;;;;7.05;4.20;;;;;;;;;;4948910;28;20023;-87
2022/03/15 00:51:51;;;;;;;7.60;4.03;;;;;;;;;;4964415;28;20119;-87
2022/03/15 00:54:16;;;;;;;6.18;3.67;;;;;;;;;;4946075;28;20073;-86
2022/03/15 00:56:42;;;;;;;7.63;4.25;;;;;;;;;;4963493;28;20397;-87
2022/03/15 00:59:09;;;;;;;8.18;4.55;;;;;;;;;;4946772;28;20031;-88
2022/03/15 01:01:36;;;;;;;13.82;4.07;;;;;;;;;;4970376;28;20476;-86
2022/03/15 01:04:02;;;;;;;10.13;3.88;;;;;;;;;;4966565;28;20023;-86
2022/03/15 01:06:27;;;;;;;8.90;4.15;;;;;;;;;;4961478;28;20027;-86
2022/03/15 01:08:53;;;;;;;10.25;5.00;;;;;;;;;;4968059;28;20043;-88
2022/03/15 01:11:18;;;;;;;9.63;4.35;;;;;;;;;;4970145;28;20113;-87
2022/03/15 01:13:43;;;;;;;6.72;3.53;;;;;;;;;;4953079;28;20030;-87
2022/03/15 01:16:09;;;;;;;8.63;4.07;;;;;;;;;;4945500;28;20027;-87
2022/03/15 01:18:35;;;;;;;10.82;4.43;;;;;;;;;;4949523;28;20035;-86
2022/03/15 01:21:00;;;;;;;5.07;3.30;;;;;;;;;;4968687;28;20027;-87
2022/03/15 01:23:26;;;;;;;6.68;3.75;;;;;;;;;;4979846;28;20026;-88
2022/03/15 01:25:51;;;;;;;10.10;3.50;;;;;;;;;;4996974;28;20029;-87
2022/03/15 01:28:16;;;;;;;5.95;3.95;;;;;;;;;;4979641;28;20125;-89
2022/03/15 01:30:42;;;;;;;10.38;4.00;;;;;;;;;;4978161;28;20030;-89
2022/03/15 01:33:07;;;;;;;8.88;4.10;;;;;;;;;;4996488;28;20029;-88
2022/03/15 01:35:33;;;;;;;9.23;4.78;;;;;;;;;;4978919;28;20069;-88
2022/03/15 01:37:59;;;;;;;11.00;4.20;;;;;;;;;;4979376;28;20086;-87
2022/03/15 01:40:24;;;;;;;12.88;4.20;;;;;;;;;;4963067;28;20023;-87
2022/03/15 01:42:50;;;;;;;6.43;3.58;;;;;;;;;;4980825;28;20481;-86
2022/03/15 01:45:15;;;;;;;10.23;4.32;;;;;;;;;;4980025;28;20101;-88
2022/03/15 01:47:42;;;;;;;9.85;3.80;;;;;;;;;;4963241;28;20031;-88
2022/03/15 01:50:08;;;;;;;5.20;3.42;;;;;;;;;;4987950;28;20022;-87
2022/03/15 01:52:34;;;;;;;7.45;4.13;;;;;;;;;;4989071;28;20082;-88
2022/03/15 01:54:59;;;;;;;5.72;3.78;;;;;;;;;;4976655;28;20037;-88
2022/03/15 01:57:25;;;;;;;10.23;4.28;;;;;;;;;;4979925;28;20030;-87
2022/03/15 01:59:50;;;;;;;7.82;4.07;;;;;;;;;;4992321;28;20034;-88
2022/03/15 02:02:16;;;;;;;10.27;3.67;;;;;;;;;;4964142;28;20417;-87
2022/03/15 02:04:41;;;;;;;7.10;4.00;;;;;;;;;;4977477;28;20429;-88
2022/03/15 02:07:12;;;;;;;8.50;4.40;;;;;;;;;;4973307;28;20031;-88
2022/03/15 02:09:38;;;;;;;7.17;3.77;;;;;;;;;;4941236;29;20050;-88
2022/03/15 02:12:07;;;;;;;6.55;3.88;;;;;;;;;;4943768;29;20027;-87
2022/03/15 02:14:34;;;;;;;8.48;4.38;;;;;;;;;;4954616;29;20027;-87
2022/03/15 02:16:59;;;;;;;10.30;3.97;;;;;;;;;;4980184;28;20086;-88
2022/03/15 02:19:27;;;;;;;6.95;3.83;;;;;;;;;;4989119;28;20038;-88
2022/03/15 02:21:57;;;;;;;11.73;4.38;;;;;;;;;;4985461;28;20029;-86
2022/03/15 02:24:23;;;;;;;7.93;4.18;;;;;;;;;;4981526;28;20051;-86
2022/03/15 02:26:49;;;;;;;10.68;4.32;;;;;;;;;;4976719;28;20061;-88
2022/03/15 02:29:16;;;;;;;8.00;3.90;;;;;;;;;;4976881;28;20028;-88
2022/03/15 02:31:41;;;;;;;5.95;4.10;;;;;;;;;;4985499;28;20019;-88
2022/03/15 02:34:07;;;;;;;9.20;4.28;;;;;;;;;;4993866;28;20392;-87
2022/03/15 02:36:33;;;;;;;9.95;4.03;;;;;;;;;;4978668;28;20023;-86
2022/03/15 02:38:58;;;;;;;9.40;4.00;;;;;;;;;;4987038;28;20125;-87
2022/03/15 02:41:23;;;;;;;9.50;3.97;;;;;;;;;;4958859;28;20576;-88
2022/03/15 02:43:49;;;;;;;7.38;3.60;;;;;;;;;;4958920;28;20111;-86
2022/03/15 02:46:15;;;;;;;5.90;3.70;;;;;;;;;;4975766;28;20496;-87
2022/03/15 02:48:40;;;;;;;5.38;3.75;;;;;;;;;;4958941;28;20027;-88
2022/03/15 02:51:08;;;;;;;7.97;4.00;;;;;;;;;;4994192;28;20022;-88
2022/03/15 02:53:35;;;;;;;9.80;4.15;;;;;;;;;;4987454;28;20026;-88
2022/03/15 02:56:00;;;;;;;6.38;3.60;;;;;;;;;;4978088;28;20029;-87
2022/03/15 02:58:26;;;;;;;8.30;3.50;;;;;;;;;;4978078;28;20022;-87
2022/03/15 03:00:51;;;;;;;7.50;3.65;;;;;;;;;;4968650;28;20030;-87
2022/03/15 03:03:17;;;;;;;5.70;3.88;;;;;;;;;;4987888;28;20034;-88
2022/03/15 03:05:43;;;;;;;7.03;3.70;;;;;;;;;;4969502;28;20023;-88
2022/03/15 03:08:08;;;;;;;6.80;3.70;;;;;;;;;;4963341;28;20137;-87
2022/03/15 03:10:34;;;;;;;8.32;3.42;;;;;;;;;;4963088;28;20027;-88
2022/03/15 03:13:00;;;;;;;9.88;4.10;;;;;;;;;;4962822;28;20093;-88
2022/03/15 03:15:26;;;;;;;7.85;3.65;;;;;;;;;;4980233;28;20054;-88
2022/03/15 03:17:52;;;;;;;6.05;3.42;;;;;;;;;;4988260;28;20030;-87
2022/03/15 03:20:21;;;;;;;8.93;3.55;;;;;;;;;;4961936;28;20030;-86
2022/03/15 03:22:50;;;;;;;6.38;3.72;;;;;;;;;;4979268;28;20027;-87
2022/03/15 03:25:16;;;;;;;8.43;3.67;;;;;;;;;;4978295;28;20026;-86
2022/03/15 03:27:42;;;;;;;5.78;3.17;;;;;;;;;;4981804;28;20121;-88
2022/03/15 03:30:08;;;;;;;5.03;3.60;;;;;;;;;;4986151;28;20111;-86
2022/03/15 03:32:34;;;;;;;8.25;3.92;;;;;;;;;;4969965;28;20023;-88
2022/03/15 03:35:04;;;;;;;6.22;4.00;;;;;;;;;;4962093;28;20118;-88
2022/03/15 03:37:30;;;;;;;12.48;4.50;;;;;;;;;;4980305;28;20055;-90
2022/03/15 03:39:55;;;;;;;5.75;3.60;;;;;;;;;;4962659;28;20113;-87
2022/03/15 03:42:21;;;;;;;9.18;4.10;;;;;;;;;;4962185;28;20058;-88
2022/03/15 03:44:46;;;;;;;8.38;3.63;;;;;;;;;;4979610;28;20514;-88
2022/03/15 03:47:11;;;;;;;4.55;3.47;;;;;;;;;;4979360;28;20437;-86
2022/03/15 03:49:38;;;;;;;6.43;3.97;;;;;;;;;;4987490;28;20479;-87
2022/03/15 03:52:05;;;;;;;11.77;4.68;;;;;;;;;;4962756;28;20030;-87
2022/03/15 03:54:31;;;;;;;9.20;3.90;;;;;;;;;;4979517;28;20026;-86
2022/03/15 03:56:56;;;;;;;12.73;3.60;;;;;;;;;;4970990;28;20099;-87
2022/03/15 03:59:21;;;;;;;5.65;3.47;;;;;;;;;;4969275;28;20112;-88
2022/03/15 04:01:47;;;;;;;8.05;4.03;;;;;;;;;;4959241;29;20389;-88
2022/03/15 04:04:12;;;;;;;7.32;4.15;;;;;;;;;;4995199;28;20026;-87
2022/03/15 04:06:39;;;;;;;10.13;3.67;;;;;;;;;;4962029;28;20031;-86
2022/03/15 04:09:05;;;;;;;13.25;4.03;;;;;;;;;;4963248;28;20034;-87
2022/03/15 04:11:31;;;;;;;9.10;3.85;;;;;;;;;;4979258;28;20026;-87
2022/03/15 04:13:59;;;;;;;6.72;3.25;;;;;;;;;;4978846;28;20456;-87
2022/03/15 04:16:27;;;;;;;6.80;4.00;;;;;;;;;;4960181;28;20512;-87
2022/03/15 04:18:53;;;;;;;7.80;3.65;;;;;;;;;;4986280;28;20023;-87
2022/03/15 04:21:22;;;;;;;7.68;3.97;;;;;;;;;;4960510;28;20034;-87
2022/03/15 04:23:48;;;;;;;8.32;3.35;;;;;;;;;;4977837;28;20023;-87
2022/03/15 04:26:13;;;;;;;11.57;4.18;;;;;;;;;;4978185;28;20110;-87
2022/03/15 04:28:38;;;;;;;17.92;4.15;;;;;;;;;;4977463;28;20058;-87
2022/03/15 04:31:04;;;;;;;9.27;4.45;;;;;;;;;;4981852;28;20027;-86
2022/03/15 04:33:29;;;;;;;8.02;3.88;;;;;;;;;;4977749;28;20034;-87
2022/03/15 04:35:54;;;;;;;11.80;4.15;;;;;;;;;;4977846;28;20022;-86
2022/03/15 04:38:20;;;;;;;8.80;4.20;;;;;;;;;;4977928;28;20053;-86
2022/03/15 04:40:45;;;;;;;9.10;4.25;;;;;;;;;;4977458;28;20041;-87
2022/03/15 04:43:12;;;;;;;6.90;4.07;;;;;;;;;;4974134;28;20163;-86
2022/03/15 04:45:37;;;;;;;6.60;3.83;;;;;;;;;;4957413;29;20046;-86
2022/03/15 04:48:03;;;;;;;8.95;3.95;;;;;;;;;;4957997;29;20401;-86
2022/03/15 04:50:30;;;;;;;9.05;3.95;;;;;;;;;;4958717;29;20034;-87
2022/03/15 04:52:55;;;;;;;7.72;3.83;;;;;;;;;;4956683;28;20026;-87
2022/03/15 04:55:21;;;;;;;10.10;3.92;;;;;;;;;;4978144;28;20031;-87
2022/03/15 04:57:46;;;;;;;9.30;4.10;;;;;;;;;;4979190;28;20051;-87
2022/03/15 05:00:12;;;;;;;7.47;4.18;;;;;;;;;;4979075;28;20047;-87
2022/03/15 05:02:41;;;;;;;7.97;3.92;;;;;;;;;;4978744;28;20037;-87
2022/03/15 05:05:08;;;;;;;7.45;3.88;;;;;;;;;;4978013;28;20522;-87
2022/03/15 05:07:34;;;;;;;5.50;3.67;;;;;;;;;;4977819;28;20026;-87
2022/03/15 05:12:43;;;;;;;11.45;3.60;;;;;;;;;;4977512;28;20057;-87
2022/03/15 05:15:09;;;;;;;7.55;3.80;;;;;;;;;;4978533;28;20541;-87
2022/03/15 05:17:36;;;;;;;7.18;3.80;;;;;;;;;;4977760;28;20035;-88
2022/03/15 05:20:05;;;;;;;6.93;3.95;;;;;;;;;;4960834;28;20026;-87
2022/03/15 05:22:32;;;;;;;12.15;4.28;;;;;;;;;;4977156;28;20420;-87
2022/03/15 05:24:58;;;;;;;6.72;3.95;;;;;;;;;;4976928;28;20022;-85
2022/03/15 05:27:23;;;;;;;8.27;3.80;;;;;;;;;;4989098;28;20041;-87
2022/03/15 05:29:48;;;;;;;11.77;3.70;;;;;;;;;;4996794;28;20038;-86
2022/03/15 05:32:14;;;;;;;21.65;3.95;;;;;;;;;;4971434;28;20014;-87
2022/03/15 05:34:39;;;;;;;17.42;4.43;;;;;;;;;;4979078;28;20058;-85
2022/03/15 05:37:06;;;;;;;9.55;4.10;;;;;;;;;;4979251;28;20471;-86
2022/03/15 05:39:32;;;;;;;7.80;3.92;;;;;;;;;;4978010;28;20023;-85
2022/03/15 05:41:57;;;;;;;5.32;3.83;;;;;;;;;;4977011;28;20495;-86
2022/03/15 05:44:23;;;;;;;14.02;4.30;;;;;;;;;;4977494;28;20035;-88
2022/03/15 05:46:48;;;;;;;9.20;3.92;;;;;;;;;;4979129;28;20515;-87
2022/03/15 05:49:14;;;;;;;9.95;4.20;;;;;;;;;;4962711;28;20046;-86
2022/03/15 05:51:39;;;;;;;5.85;3.70;;;;;;;;;;4960328;28;20019;-86
2022/03/15 05:54:07;;;;;;;10.75;3.83;;;;;;;;;;4965827;28;20661;-83
2022/03/15 05:56:34;;;;;;;7.03;4.47;;;;;;;;;;4980858;28;20122;-84
2022/03/15 05:58:59;;;;;;;12.00;4.28;;;;;;;;;;4960803;28;20027;-86
2022/03/15 06:01:24;;;;;;;11.80;3.78;;;;;;;;;;4963456;28;20090;-84
2022/03/15 06:03:50;;;;;;;6.05;3.92;;;;;;;;;;4985581;28;20026;-86
2022/03/15 06:06:15;;;;;;;8.65;4.47;;;;;;;;;;4976313;28;20038;-84
2022/03/15 06:08:41;;;;;;;8.23;3.67;;;;;;;;;;4975987;28;20445;-84
2022/03/15 06:11:07;;;;;;;13.13;4.07;;;;;;;;;;4975524;28;20026;-84
2022/03/15 06:13:33;;;;;;;11.68;3.88;;;;;;;;;;4975654;28;20030;-86
2022/03/15 06:15:58;;;;;;;8.90;3.60;;;;;;;;;;4963896;28;20385;-86
2022/03/15 06:18:23;;;;;;;9.85;4.38;;;;;;;;;;4973118;28;20035;-84
2022/03/15 06:20:49;;;;;;;8.18;4.00;;;;;;;;;;4991087;28;20030;-85
2022/03/15 06:23:20;;;;;;;11.80;4.32;;;;;;;;;;4985302;28;20498;-85
2022/03/15 06:25:45;;;;;;;15.52;4.35;;;;;;;;;;4980120;28;20059;-84
2022/03/15 06:28:10;;;;;;;11.75;4.07;;;;;;;;;;4975338;28;20030;-84
2022/03/15 06:30:36;;;;;;;13.80;6.07;;;;;;;;;;4980038;28;20109;-84
2022/03/15 06:33:03;;;;;;;8.82;4.13;;;;;;;;;;4995140;28;20022;-85
2022/03/15 06:35:28;;;;;;;9.77;4.47;;;;;;;;;;4994772;28;20027;-86
2022/03/15 06:37:54;;;;;;;11.98;6.22;;;;;;;;;;4998210;28;20027;-85
2022/03/15 06:40:23;;;;;;;10.18;4.35;;;;;;;;;;4998982;28;20105;-84
2022/03/15 06:42:48;;;;;;;18.42;4.43;;;;;;;;;;4981718;28;20110;-85
2022/03/15 06:45:15;;;;;;;12.13;4.80;;;;;;;;;;4999136;28;20026;-85
2022/03/15 06:47:40;;;;;;;14.27;4.53;;;;;;;;;;4993713;28;20038;-85
2022/03/15 06:50:12;;;;;;;13.25;5.50;;;;;;;;;;4964009;28;20075;-84
2022/03/15 06:52:38;;;;;;;16.30;6.38;;;;;;;;;;4962038;28;20034;-85
2022/03/15 06:55:04;;;;;;;14.18;5.20;;;;;;;;;;4981047;28;20098;-86
2022/03/15 06:57:30;;;;;;;15.32;4.40;;;;;;;;;;4964002;28;20126;-86
2022/03/15 06:59:56;;;;;;;11.82;5.32;;;;;;;;;;4980127;28;20457;-87
2022/03/15 07:02:22;;;;;;;13.60;5.03;;;;;;;;;;4998309;28;20050;-85
2022/03/15 07:04:48;;;;;;;17.73;6.03;;;;;;;;;;4984401;28;20029;-86
2022/03/15 07:07:14;;;;;;;10.25;5.47;;;;;;;;;;5002381;28;20042;-86
2022/03/15 07:09:40;;;;;;;17.70;5.45;;;;;;;;;;4996139;28;20027;-85
2022/03/15 07:12:06;;;;;;;14.15;5.68;;;;;;;;;;4997070;28;20061;-85
2022/03/15 07:14:31;;;;;;;17.00;5.20;;;;;;;;;;4987865;28;20023;-85
2022/03/15 07:16:57;;;;;;;14.73;5.18;;;;;;;;;;4990309;28;20035;-85
2022/03/15 07:19:22;;;;;;;8.07;4.63;;;;;;;;;;4993339;28;20026;-84
2022/03/15 07:21:47;;;;;;;11.82;4.32;;;;;;;;;;4967451;28;20033;-84
2022/03/15 07:24:13;;;;;;;23.10;5.50;;;;;;;;;;4996360;28;20105;-86
2022/03/15 07:26:38;;;;;;;12.07;5.25;;;;;;;;;;5005317;28;20024;-85
2022/03/15 07:29:03;;;;;;;17.95;5.82;;;;;;;;;;5005861;28;20038;-85
2022/03/15 07:31:29;;;;;;;16.67;5.82;;;;;;;;;;5003729;28;20563;-86
2022/03/15 07:33:55;;;;;;;12.38;5.25;;;;;;;;;;4971559;28;20027;-85
2022/03/15 07:36:21;;;;;;;15.90;5.57;;;;;;;;;;4988838;28;20014;-85
2022/03/15 07:38:47;;;;;;;13.13;5.45;;;;;;;;;;4985251;28;20033;-84
2022/03/15 07:41:13;;;;;;;12.75;5.30;;;;;;;;;;4984983;28;20094;-85
2022/03/15 07:43:38;;;;;;;20.08;5.50;;;;;;;;;;4967350;28;20069;-85
2022/03/15 07:46:04;;;;;;;17.00;5.28;;;;;;;;;;4985083;28;20031;-84
2022/03/15 07:48:30;;;;;;;18.90;5.60;;;;;;;;;;4991866;28;20046;-85
2022/03/15 07:50:56;;;;;;;14.05;5.60;;;;;;;;;;4992069;28;20022;-85
2022/03/15 07:53:21;;;;;;;17.45;5.18;;;;;;;;;;4984872;28;20026;-84
2022/03/15 07:55:46;;;;;;;15.50;5.45;;;;;;;;;;4983565;28;20030;-83
2022/03/15 07:58:12;;;;;;;13.25;6.45;;;;;;;;;;4965046;29;20031;-83
2022/03/15 08:00:37;;;;;;;13.38;5.40;;;;;;;;;;4975533;28;20030;-87
2022/03/15 08:03:03;;;;;;;19.85;5.35;;;;;;;;;;4994935;28;20081;-84
2022/03/15 08:05:28;;;;;;;12.30;5.90;;;;;;;;;;5002978;28;20050;-83
2022/03/15 08:07:54;;;;;;;9.77;5.43;;;;;;;;;;5003505;28;20072;-85
2022/03/15 08:10:20;;;;;;;11.38;5.18;;;;;;;;;;5003002;28;20104;-87
2022/03/15 08:12:45;;;;;;;16.60;5.05;;;;;;;;;;4976252;28;20443;-85
2022/03/15 08:15:11;;;;;;;18.98;5.38;;;;;;;;;;4963759;29;20028;-84
2022/03/15 08:17:40;;;;;;;13.10;4.45;;;;;;;;;;4981940;28;20032;-87
2022/03/15 08:20:06;;;;;;;9.57;4.25;;;;;;;;;;4977927;28;20022;-86
2022/03/15 08:22:32;;;;;;;16.33;5.10;;;;;;;;;;4973063;28;20026;-85
2022/03/15 08:24:58;;;;;;;13.27;4.97;;;;;;;;;;4977094;28;20018;-84
2022/03/15 08:27:24;;;;;;;14.30;5.53;;;;;;;;;;4991605;28;20026;-87
2022/03/15 08:29:50;;;;;;;12.88;4.93;;;;;;;;;;4988170;28;20074;-85
2022/03/15 08:32:15;;;;;;;13.35;4.95;;;;;;;;;;4990018;28;20022;-85
2022/03/15 08:34:42;;;;;;;10.93;4.70;;;;;;;;;;5003632;28;20078;-86
2022/03/15 08:37:08;;;;;;;13.68;5.10;;;;;;;;;;4998196;28;20026;-85
2022/03/15 08:39:33;;;;;;;12.20;4.72;;;;;;;;;;4981286;28;20038;-86
2022/03/15 08:41:58;;;;;;;14.68;5.10;;;;;;;;;;4976636;28;20430;-86
2022/03/15 08:44:27;;;;;;;10.93;4.70;;;;;;;;;;4949820;29;20035;-88
2022/03/15 08:46:52;;;;;;;12.82;4.63;;;;;;;;;;4960357;28;20042;-86
2022/03/15 08:49:19;;;;;;;15.95;4.75;;;;;;;;;;4965676;28;20023;-85
2022/03/15 08:51:45;;;;;;;15.93;4.93;;;;;;;;;;4966085;28;20069;-85
2022/03/15 08:54:11;;;;;;;11.52;5.13;;;;;;;;;;4966199;28;20086;-85
2022/03/15 08:56:40;;;;;;;14.23;4.93;;;;;;;;;;4985176;28;20035;-85
2022/03/15 08:59:06;;;;;;;17.75;5.72;;;;;;;;;;4981493;28;20022;-87
2022/03/15 09:01:31;;;;;;;12.63;4.40;;;;;;;;;;4986033;28;20519;-86
2022/03/15 09:03:57;;;;;;;12.52;5.20;;;;;;;;;;4994466;28;20018;-86
2022/03/15 09:06:22;;;;;;;14.15;4.78;;;;;;;;;;4993853;28;20030;-86
2022/03/15 09:09:34;;;;;;;14.95;4.80;;;;;;;;;;4984498;28;20027;-85
2022/03/15 09:12:20;;;;;;;15.80;5.28;;;;;;;;;;4883791;29;20063;-86
2022/03/15 09:18:51;;;;;;;11.35;4.55;;;;;;;;;;4876361;29;20166;-86
2022/03/15 09:22:04;;;;;;;11.40;5.15;;;;;;;;;;4860026;29;20037;-86
2022/03/15 09:28:13;;;;;;;10.93;4.75;;;;;;;;;;4820572;29;20112;-87
2022/03/15 09:34:04;;;;;;;15.68;5.53;;;;;;;;;;4784143;29;20042;-86
2022/03/15 09:36:29;;;;;;;13.18;5.30;;;;;;;;;;4863056;29;20123;-85
2022/03/15 09:38:56;;;;;;;9.88;4.47;;;;;;;;;;4916722;29;20088;-86
2022/03/15 09:44:57;;;;;;;7.75;3.22;;;;;;;;;;4909924;29;20134;-85
2022/03/15 09:47:32;;;;;;;6.18;2.72;;;;;;;;;;4956392;28;20031;-86
2022/03/15 09:50:03;;;;;;;13.50;3.00;;;;;;;;;;4963817;28;20133;-84
2022/03/15 09:52:28;;;;;;;6.88;2.90;;;;;;;;;;4951707;28;20548;-86
2022/03/15 09:54:55;;;;;;;16.42;2.95;;;;;;;;;;4962890;28;20026;-86
2022/03/15 09:57:21;;;;;;;7.00;2.63;;;;;;;;;;4967757;28;20027;-85
2022/03/15 09:59:49;;;;;;;7.55;3.10;;;;;;;;;;4961789;28;20086;-85
2022/03/15 10:02:15;;;;;;;6.00;2.67;;;;;;;;;;4958458;28;20057;-85
2022/03/15 10:04:40;;;;;;;6.15;2.42;;;;;;;;;;4958551;28;20426;-86
2022/03/15 10:07:08;;;;;;;9.02;2.30;;;;;;;;;;4960040;28;20035;-84
2022/03/15 10:09:34;;;;;;;10.30;2.70;;;;;;;;;;4977483;28;20038;-85
2022/03/15 10:12:00;;;;;;;8.40;2.75;;;;;;;;;;4976743;28;20127;-85
2022/03/15 10:14:49;;;;;;;6.07;2.80;;;;;;;;;;4959407;28;20023;-86
2022/03/15 10:17:15;;;;;;;9.73;2.83;;;;;;;;;;4963041;28;20025;-83
2022/03/15 10:19:54;;;;;;;11.15;2.45;;;;;;;;;;4960133;28;20125;-87
2022/03/15 10:22:25;;;;;;;8.40;2.60;;;;;;;;;;4959327;28;20374;-86
2022/03/15 10:24:52;;;;;;;5.32;2.05;;;;;;;;;;4961127;28;20515;-86
2022/03/15 10:27:18;;;;;;;4.45;2.28;;;;;;;;;;4948613;29;20517;-85
2022/03/15 10:29:54;;;;;;;5.72;2.40;;;;;;;;;;4941857;29;20056;-86
2022/03/15 10:32:21;;;;;;;3.97;2.30;;;;;;;;;;4962501;28;20030;-85
2022/03/15 10:34:49;;;;;;;5.97;2.88;;;;;;;;;;4976368;28;20058;-85
2022/03/15 10:37:15;;;;;;;6.10;2.70;;;;;;;;;;4978191;28;20026;-85
2022/03/15 10:39:40;;;;;;;4.43;2.65;;;;;;;;;;4978156;28;20052;-84
2022/03/15 10:42:09;;;;;;;14.38;2.70;;;;;;;;;;4982126;28;20057;-84
2022/03/15 10:44:40;;;;;;;11.43;4.18;;;;;;;;;;4977128;28;20023;-86
2022/03/15 10:47:05;;;;;;;12.95;5.00;;;;;;;;;;4993773;28;20030;-86
2022/03/15 10:49:45;;;;;;;12.95;4.70;;;;;;;;;;4981219;28;20036;-86
2022/03/15 10:52:10;;;;;;;9.25;4.80;;;;;;;;;;4976854;28;20114;-86
2022/03/15 10:54:36;;;;;;;12.85;5.32;;;;;;;;;;4975782;28;20066;-85
2022/03/15 10:57:01;;;;;;;11.85;4.95;;;;;;;;;;4958148;28;20031;-85
2022/03/15 10:59:27;;;;;;;7.13;4.13;;;;;;;;;;4958883;28;20026;-85
2022/03/15 11:01:52;;;;;;;11.27;4.38;;;;;;;;;;4958145;28;20023;-85
2022/03/15 11:04:18;;;;;;;12.02;5.10;;;;;;;;;;4975115;28;20045;-84
2022/03/15 11:06:46;;;;;;;13.27;5.00;;;;;;;;;;4957150;28;20027;-85
2022/03/15 11:09:32;;;;;;;14.65;4.95;;;;;;;;;;4957557;28;20061;-86
2022/03/15 11:12:05;;;;;;;6.90;4.53;;;;;;;;;;4975333;28;20033;-85
2022/03/15 11:14:39;;;;;;;13.32;4.75;;;;;;;;;;4982619;28;20027;-85
2022/03/15 11:17:08;;;;;;;10.13;4.22;;;;;;;;;;4992637;28;20027;-85
2022/03/15 11:19:43;;;;;;;6.97;3.75;;;;;;;;;;4973482;28;20074;-85
2022/03/15 11:22:09;;;;;;;8.02;4.10;;;;;;;;;;4982924;28;20019;-85
2022/03/15 11:24:38;;;;;;;12.05;4.22;;;;;;;;;;4978292;28;20027;-85
2022/03/15 11:27:07;;;;;;;12.38;4.82;;;;;;;;;;4981260;28;20030;-84
2022/03/15 11:29:33;;;;;;;14.95;4.35;;;;;;;;;;4980503;28;20395;-84
2022/03/15 11:32:02;;;;;;;10.60;4.32;;;;;;;;;;4985871;28;20077;-84
2022/03/15 11:34:28;;;;;;;10.63;4.72;;;;;;;;;;4978109;28;20030;-84
2022/03/15 11:36:56;;;;;;;9.23;4.15;;;;;;;;;;4977704;28;20019;-85
2022/03/15 11:39:22;;;;;;;7.05;4.28;;;;;;;;;;4978666;28;20432;-85
2022/03/15 11:41:53;;;;;;;7.57;4.78;;;;;;;;;;4978084;28;20026;-84
2022/03/15 11:45:02;;;;;;;12.53;5.30;;;;;;;;;;4948480;28;20489;-85
2022/03/15 11:47:47;;;;;;;9.93;4.43;;;;;;;;;;4980016;28;20038;-85
2022/03/15 11:50:20;;;;;;;11.55;5.45;;;;;;;;;;4985506;28;20054;-84
2022/03/15 11:53:37;;;;;;;12.98;5.95;;;;;;;;;;4961115;28;20463;-86
2022/03/15 11:57:01;;;;;;;11.88;5.22;;;;;;;;;;4959757;28;20031;-85
2022/03/15 12:00:36;;;;;;;10.93;5.45;;;;;;;;;;4971609;28;20078;-85
2022/03/15 12:03:23;;;;;;;9.07;4.45;;;;;;;;;;4956486;28;20031;-85
2022/03/15 12:06:20;;;;;;;12.07;4.30;;;;;;;;;;4970959;28;20047;-84
2022/03/15 12:08:53;;;;;;;9.43;4.72;;;;;;;;;;4979750;28;20022;-84
2022/03/15 12:11:39;;;;;;;11.75;4.70;;;;;;;;;;4981355;28;20022;-87
2022/03/15 12:14:19;;;;;;;12.63;4.78;;;;;;;;;;4981569;28;20056;-88
2022/03/15 12:16:54;;;;;;;9.10;4.57;;;;;;;;;;4982063;28;20117;-88
2022/03/15 12:19:39;;;;;;;13.75;5.35;;;;;;;;;;4958142;28;20023;-86
2022/03/15 12:22:21;;;;;;;11.00;5.00;;;;;;;;;;4963684;28;20473;-88
2022/03/15 12:24:46;;;;;;;9.02;4.88;;;;;;;;;;4962788;28;20023;-87
2022/03/15 12:27:38;;;;;;;10.95;5.57;;;;;;;;;;4973519;28;20053;-87
2022/03/15 12:30:05;;;;;;;11.43;5.50;;;;;;;;;;4961179;28;20031;-87
2022/03/15 12:32:31;;;;;;;11.55;4.75;;;;;;;;;;4973505;28;20273;-87
2022/03/15 12:35:14;;;;;;;;;;;;;;;;;;;;;
2022/03/15 12:37:49;;;;;;;11.10;4.50;;;;;;;;;;4984838;28;20121;-86
2022/03/15 12:40:14;;;;;;;9.38;4.68;;;;;;;;;;4963490;28;20086;-87
2022/03/15 12:42:52;;;;;;;9.80;4.57;;;;;;;;;;4963346;28;20023;-88
2022/03/15 12:45:18;;;;;;;10.98;4.82;;;;;;;;;;4953355;29;20502;-88
2022/03/15 12:47:46;;;;;;;13.07;4.78;;;;;;;;;;4954607;28;20125;-86
2022/03/15 12:50:37;;;;;;;11.18;4.65;;;;;;;;;;4977548;28;20062;-86
2022/03/15 12:53:12;;;;;;;7.43;4.50;;;;;;;;;;4955083;28;20035;-86
2022/03/15 12:55:41;;;;;;;10.52;5.00;;;;;;;;;;4960114;29;20105;-85
2022/03/15 12:58:12;;;;;;;13.95;4.60;;;;;;;;;;4943141;29;20031;-85
2022/03/15 13:00:40;;;;;;;11.27;4.10;;;;;;;;;;4954282;28;20030;-86
2022/03/15 13:03:10;;;;;;;10.00;4.22;;;;;;;;;;4965395;28;20034;-86
2022/03/15 13:05:41;;;;;;;17.88;4.68;;;;;;;;;;4958411;28;20396;-85
2022/03/15 13:08:08;;;;;;;7.88;5.63;;;;;;;;;;4960711;28;20480;-86
2022/03/15 13:10:38;;;;;;;9.98;5.35;;;;;;;;;;4959304;28;20034;-84
2022/03/15 13:13:24;;;;;;;14.10;4.75;;;;;;;;;;4963033;28;20026;-89
2022/03/15 13:16:03;;;;;;;8.27;5.20;;;;;;;;;;4955940;28;20019;-86
2022/03/15 13:18:31;;;;;;;9.65;4.68;;;;;;;;;;4959558;28;20400;-86
2022/03/15 13:21:12;;;;;;;10.45;5.30;;;;;;;;;;4997016;28;20078;-86
2022/03/15 13:23:42;;;;;;;11.30;5.10;;;;;;;;;;4982396;28;20089;-87
2022/03/15 13:26:11;;;;;;;9.10;4.78;;;;;;;;;;4981089;28;20118;-87
2022/03/15 13:28:49;;;;;;;13.10;5.40;;;;;;;;;;4962738;28;20031;-85
2022/03/15 13:31:17;;;;;;;11.20;5.47;;;;;;;;;;4963588;28;20499;-85
2022/03/15 13:33:50;;;;;;;10.38;5.78;;;;;;;;;;4998671;28;20030;-86
2022/03/15 13:36:24;;;;;;;7.85;4.93;;;;;;;;;;4981643;28;20032;-85
2022/03/15 13:39:05;;;;;;;9.93;4.75;;;;;;;;;;4966168;28;20031;-87
2022/03/15 13:41:42;;;;;;;10.48;5.07;;;;;;;;;;4960820;28;20118;-86
2022/03/15 13:44:25;;;;;;;7.32;4.50;;;;;;;;;;4961388;28;20090;-85
2022/03/15 13:47:14;;;;;;;8.50;4.70;;;;;;;;;;4978397;28;20082;-87
2022/03/15 13:49:41;;;;;;;11.60;5.68;;;;;;;;;;4964631;28;20057;-85
2022/03/15 13:52:20;;;;;;;11.15;5.10;;;;;;;;;;4959937;28;20082;-83
2022/03/15 13:54:50;;;;;;;10.40;5.45;;;;;;;;;;4960831;28;20113;-85
2022/03/15 13:57:31;;;;;;;5.32;4.00;;;;;;;;;;4960596;28;20026;-86
2022/03/15 14:00:17;;;;;;;9.15;4.50;;;;;;;;;;4945795;28;20034;-88
2022/03/15 14:02:44;;;;;;;8.95;4.70;;;;;;;;;;4960903;28;20093;-87
2022/03/15 14:05:12;;;;;;;8.57;4.32;;;;;;;;;;4962098;28;20026;-87
2022/03/15 14:07:39;;;;;;;13.02;5.03;;;;;;;;;;4961200;28;20023;-86
2022/03/15 14:10:11;;;;;;;8.40;4.78;;;;;;;;;;4961720;28;20452;-86
2022/03/15 14:12:38;;;;;;;;;;;;;;;;;;4979277;28;20054;-85
2022/03/15 14:15:08;;;;;;;10.50;5.03;;;;;;;;;;4962093;28;19925;-87
2022/03/15 14:17:50;;;;;;;7.40;4.70;;;;;;;;;;4962206;28;20044;-87
2022/03/15 14:20:21;;;;;;;13.35;4.50;;;;;;;;;;4960892;28;20050;-87
2022/03/15 14:22:52;;;;;;;10.57;5.00;;;;;;;;;;4961400;28;20026;-86
2022/03/15 14:25:25;;;;;;;9.80;5.43;;;;;;;;;;4962702;28;20022;-85
2022/03/15 14:28:05;;;;;;;10.73;4.65;;;;;;;;;;4962062;28;20041;-87
2022/03/15 14:30:32;;;;;;;11.27;5.25;;;;;;;;;;4961922;28;20515;-86
2022/03/15 14:33:00;;;;;;;9.40;5.25;;;;;;;;;;4980958;28;20054;-86
2022/03/15 14:35:31;;;;;;;11.25;4.93;;;;;;;;;;4962726;28;20019;-86
2022/03/15 14:38:16;;;;;;;9.35;4.78;;;;;;;;;;4963380;28;20023;-86
2022/03/15 14:40:45;;;;;;;6.25;4.50;;;;;;;;;;4964281;28;20035;-87
2022/03/15 14:43:17;;;;;;;12.95;4.93;;;;;;;;;;4986035;28;20054;-86
2022/03/15 14:45:43;;;;;;;12.15;5.28;;;;;;;;;;4962988;28;20059;-86
2022/03/15 14:48:22;;;;;;;13.82;5.82;;;;;;;;;;4957264;29;20462;-85
2022/03/15 14:50:48;;;;;;;14.05;5.40;;;;;;;;;;4944402;29;20146;-86
2022/03/15 14:53:17;;;;;;;8.20;5.25;;;;;;;;;;4945388;29;20063;-86
2022/03/15 14:55:44;;;;;;;8.90;4.32;;;;;;;;;;4948269;29;20031;-85
2022/03/15 14:58:10;;;;;;;7.43;4.28;;;;;;;;;;4951870;29;20042;-85
2022/03/15 15:00:35;;;;;;;4.13;3.38;;;;;;;;;;4948758;29;20051;-85
2022/03/15 15:03:01;;;;;;;6.22;3.72;;;;;;;;;;4947481;28;20027;-85
2022/03/15 15:05:29;;;;;;;8.07;4.38;;;;;;;;;;4947183;29;20027;-85